sensor_id;sensor_type;location;lat;lon;timestamp;P1;durP1;ratioP1;P2;durP2;ratioP2
68074;SDS011;54864;52.002;5.468;2023-03-21T00:00:07;32.80;;;22.90;;
68074;SDS011;54864;52.002;5.468;2023-03-21T00:01:10;30.17;;;23.20;;
68074;SDS011;54864;52.002;5.468;2023-03-21T00:02:12;30.42;;;23.58;;
68074;SDS011;54864;52.002;5.468;2023-03-21T00:03:13;32.60;;;23.37;;
68074;SDS011;54864;52.002;5.468;2023-03-21T00:04:16;30.63;;;22.58;;
68074;SDS011;54864;52.002;5.468;2023-03-21T00:05:18;33.58;;;22.90;;
68074;SDS011;54864;52.002;5.468;2023-03-21T00:06:19;29.90;;;21.52;;
68074;SDS011;54864;52.002;5.468;2023-03-21T00:07:22;33.25;;;22.52;;
68074;SDS011;54864;52.002;5.468;2023-03-21T00:08:23;30.53;;;22.33;;
68074;SDS011;54864;52.002;5.468;2023-03-21T00:09:26;30.23;;;22.00;;
68074;SDS011;54864;52.002;5.468;2023-03-21T00:10:26;32.22;;;22.30;;
68074;SDS011;54864;52.002;5.468;2023-03-21T00:11:28;27.80;;;22.20;;
68074;SDS011;54864;52.002;5.468;2023-03-21T00:12:29;27.08;;;20.77;;
68074;SDS011;54864;52.002;5.468;2023-03-21T00:13:31;31.85;;;22.70;;
68074;SDS011;54864;52.002;5.468;2023-03-21T00:14:32;33.08;;;22.10;;
68074;SDS011;54864;52.002;5.468;2023-03-21T00:15:34;32.67;;;22.50;;
68074;SDS011;54864;52.002;5.468;2023-03-21T00:16:49;28.85;;;21.58;;
68074;SDS011;54864;52.002;5.468;2023-03-21T00:17:53;33.33;;;22.85;;
68074;SDS011;54864;52.002;5.468;2023-03-21T00:18:57;28.30;;;21.95;;
68074;SDS011;54864;52.002;5.468;2023-03-21T00:20:04;31.35;;;23.02;;
68074;SDS011;54864;52.002;5.468;2023-03-21T00:21:13;30.55;;;22.85;;
68074;SDS011;54864;52.002;5.468;2023-03-21T00:22:16;33.30;;;23.35;;
68074;SDS011;54864;52.002;5.468;2023-03-21T00:23:17;31.40;;;23.40;;
68074;SDS011;54864;52.002;5.468;2023-03-21T00:24:19;34.03;;;24.25;;
68074;SDS011;54864;52.002;5.468;2023-03-21T00:25:20;37.70;;;24.42;;
68074;SDS011;54864;52.002;5.468;2023-03-21T00:26:22;30.92;;;24.17;;
68074;SDS011;54864;52.002;5.468;2023-03-21T00:27:22;33.50;;;25.60;;
68074;SDS011;54864;52.002;5.468;2023-03-21T00:28:24;36.47;;;25.45;;
68074;SDS011;54864;52.002;5.468;2023-03-21T00:29:25;32.95;;;25.90;;
68074;SDS011;54864;52.002;5.468;2023-03-21T00:30:27;33.42;;;25.65;;
68074;SDS011;54864;52.002;5.468;2023-03-21T00:31:28;32.28;;;25.50;;
68074;SDS011;54864;52.002;5.468;2023-03-21T00:32:30;33.55;;;25.42;;
68074;SDS011;54864;52.002;5.468;2023-03-21T00:33:30;35.38;;;26.48;;
68074;SDS011;54864;52.002;5.468;2023-03-21T00:34:33;35.25;;;26.65;;
68074;SDS011;54864;52.002;5.468;2023-03-21T00:35:35;35.47;;;27.83;;
68074;SDS011;54864;52.002;5.468;2023-03-21T00:36:38;35.58;;;28.42;;
68074;SDS011;54864;52.002;5.468;2023-03-21T00:37:39;39.05;;;27.83;;
68074;SDS011;54864;52.002;5.468;2023-03-21T00:38:42;37.58;;;28.05;;
68074;SDS011;54864;52.002;5.468;2023-03-21T00:39:42;37.20;;;27.70;;
68074;SDS011;54864;52.002;5.468;2023-03-21T00:40:47;36.30;;;28.10;;
68074;SDS011;54864;52.002;5.468;2023-03-21T00:41:48;35.45;;;27.95;;
68074;SDS011;54864;52.002;5.468;2023-03-21T00:42:50;36.15;;;28.55;;
68074;SDS011;54864;52.002;5.468;2023-03-21T00:43:51;38.97;;;30.10;;
68074;SDS011;54864;52.002;5.468;2023-03-21T00:44:54;39.22;;;30.35;;
68074;SDS011;54864;52.002;5.468;2023-03-21T00:45:56;39.70;;;28.85;;
68074;SDS011;54864;52.002;5.468;2023-03-21T00:46:59;39.72;;;29.45;;
68074;SDS011;54864;52.002;5.468;2023-03-21T00:48:02;37.10;;;29.55;;
68074;SDS011;54864;52.002;5.468;2023-03-21T00:49:04;40.38;;;30.25;;
68074;SDS011;54864;52.002;5.468;2023-03-21T00:50:05;41.05;;;31.60;;
68074;SDS011;54864;52.002;5.468;2023-03-21T00:51:12;40.92;;;29.30;;
68074;SDS011;54864;52.002;5.468;2023-03-21T00:52:20;38.38;;;30.30;;
68074;SDS011;54864;52.002;5.468;2023-03-21T00:53:22;39.88;;;30.20;;
68074;SDS011;54864;52.002;5.468;2023-03-21T00:54:23;41.50;;;31.65;;
68074;SDS011;54864;52.002;5.468;2023-03-21T00:55:25;44.72;;;31.30;;
68074;SDS011;54864;52.002;5.468;2023-03-21T00:56:25;42.97;;;31.93;;
68074;SDS011;54864;52.002;5.468;2023-03-21T00:57:27;40.17;;;30.60;;
68074;SDS011;54864;52.002;5.468;2023-03-21T00:58:28;41.92;;;31.65;;
68074;SDS011;54864;52.002;5.468;2023-03-21T00:59:29;39.47;;;31.25;;
68074;SDS011;54864;52.002;5.468;2023-03-21T01:00:30;45.75;;;32.30;;
68074;SDS011;54864;52.002;5.468;2023-03-21T01:01:33;43.77;;;30.27;;
68074;SDS011;54864;52.002;5.468;2023-03-21T01:02:33;45.20;;;30.67;;
68074;SDS011;54864;52.002;5.468;2023-03-21T01:03:37;40.93;;;30.43;;
68074;SDS011;54864;52.002;5.468;2023-03-21T01:04:41;39.25;;;31.13;;
68074;SDS011;54864;52.002;5.468;2023-03-21T01:05:44;40.95;;;31.17;;
68074;SDS011;54864;52.002;5.468;2023-03-21T01:07:05;45.92;;;30.85;;
68074;SDS011;54864;52.002;5.468;2023-03-21T01:08:10;43.00;;;31.00;;
68074;SDS011;54864;52.002;5.468;2023-03-21T01:09:13;40.78;;;30.90;;
68074;SDS011;54864;52.002;5.468;2023-03-21T01:10:16;40.90;;;30.10;;
68074;SDS011;54864;52.002;5.468;2023-03-21T01:11:19;42.10;;;29.13;;
68074;SDS011;54864;52.002;5.468;2023-03-21T01:12:22;42.10;;;30.63;;
68074;SDS011;54864;52.002;5.468;2023-03-21T01:13:23;43.95;;;30.48;;
68074;SDS011;54864;52.002;5.468;2023-03-21T01:14:25;48.80;;;31.08;;
68074;SDS011;54864;52.002;5.468;2023-03-21T01:15:27;41.90;;;29.58;;
68074;SDS011;54864;52.002;5.468;2023-03-21T01:16:28;45.05;;;30.38;;
68074;SDS011;54864;52.002;5.468;2023-03-21T01:17:29;46.47;;;30.25;;
68074;SDS011;54864;52.002;5.468;2023-03-21T01:18:30;47.83;;;30.85;;
68074;SDS011;54864;52.002;5.468;2023-03-21T01:19:33;43.38;;;30.40;;
68074;SDS011;54864;52.002;5.468;2023-03-21T01:20:34;42.53;;;29.50;;
68074;SDS011;54864;52.002;5.468;2023-03-21T01:21:35;49.77;;;31.87;;
68074;SDS011;54864;52.002;5.468;2023-03-21T01:22:39;40.25;;;30.02;;
68074;SDS011;54864;52.002;5.468;2023-03-21T01:23:40;49.28;;;32.28;;
68074;SDS011;54864;52.002;5.468;2023-03-21T01:24:42;46.47;;;31.90;;
68074;SDS011;54864;52.002;5.468;2023-03-21T01:25:43;46.53;;;30.70;;
68074;SDS011;54864;52.002;5.468;2023-03-21T01:26:48;44.78;;;31.40;;
68074;SDS011;54864;52.002;5.468;2023-03-21T01:27:49;50.13;;;31.47;;
68074;SDS011;54864;52.002;5.468;2023-03-21T01:28:50;45.80;;;30.47;;
68074;SDS011;54864;52.002;5.468;2023-03-21T01:29:52;42.28;;;30.83;;
68074;SDS011;54864;52.002;5.468;2023-03-21T01:30:53;48.95;;;31.05;;
68074;SDS011;54864;52.002;5.468;2023-03-21T01:31:55;48.45;;;29.67;;
68074;SDS011;54864;52.002;5.468;2023-03-21T01:32:55;49.25;;;30.40;;
68074;SDS011;54864;52.002;5.468;2023-03-21T01:33:57;47.88;;;28.67;;
68074;SDS011;54864;52.002;5.468;2023-03-21T01:34:58;46.58;;;31.55;;
68074;SDS011;54864;52.002;5.468;2023-03-21T01:36:00;45.83;;;29.83;;
68074;SDS011;54864;52.002;5.468;2023-03-21T01:37:01;48.42;;;30.77;;
68074;SDS011;54864;52.002;5.468;2023-03-21T01:38:04;44.70;;;28.98;;
68074;SDS011;54864;52.002;5.468;2023-03-21T01:39:05;46.28;;;29.15;;
68074;SDS011;54864;52.002;5.468;2023-03-21T01:40:10;50.28;;;30.45;;
68074;SDS011;54864;52.002;5.468;2023-03-21T01:41:17;45.33;;;29.88;;
68074;SDS011;54864;52.002;5.468;2023-03-21T01:42:24;43.50;;;28.45;;
68074;SDS011;54864;52.002;5.468;2023-03-21T01:43:26;45.03;;;28.70;;
68074;SDS011;54864;52.002;5.468;2023-03-21T01:44:28;43.67;;;28.95;;
68074;SDS011;54864;52.002;5.468;2023-03-21T01:47:11;43.65;;;28.48;;
68074;SDS011;54864;52.002;5.468;2023-03-21T01:48:13;40.80;;;28.52;;
68074;SDS011;54864;52.002;5.468;2023-03-21T01:49:15;41.22;;;26.70;;
68074;SDS011;54864;52.002;5.468;2023-03-21T01:50:25;44.78;;;27.27;;
68074;SDS011;54864;52.002;5.468;2023-03-21T01:51:26;49.83;;;28.67;;
68074;SDS011;54864;52.002;5.468;2023-03-21T01:52:30;44.58;;;27.90;;
68074;SDS011;54864;52.002;5.468;2023-03-21T01:53:35;37.77;;;27.60;;
68074;SDS011;54864;52.002;5.468;2023-03-21T01:54:38;41.35;;;27.80;;
68074;SDS011;54864;52.002;5.468;2023-03-21T01:55:42;40.95;;;27.42;;
68074;SDS011;54864;52.002;5.468;2023-03-21T01:56:44;42.53;;;27.25;;
68074;SDS011;54864;52.002;5.468;2023-03-21T01:57:48;42.67;;;27.63;;
68074;SDS011;54864;52.002;5.468;2023-03-21T01:58:54;39.05;;;27.30;;
68074;SDS011;54864;52.002;5.468;2023-03-21T01:59:58;45.83;;;26.52;;
68074;SDS011;54864;52.002;5.468;2023-03-21T02:01:11;39.23;;;25.97;;
68074;SDS011;54864;52.002;5.468;2023-03-21T02:02:12;42.57;;;27.20;;
68074;SDS011;54864;52.002;5.468;2023-03-21T02:03:19;40.30;;;26.42;;
68074;SDS011;54864;52.002;5.468;2023-03-21T02:04:20;42.28;;;26.60;;
68074;SDS011;54864;52.002;5.468;2023-03-21T02:05:28;37.03;;;26.52;;
68074;SDS011;54864;52.002;5.468;2023-03-21T02:06:38;37.00;;;26.80;;
68074;SDS011;54864;52.002;5.468;2023-03-21T02:07:44;39.90;;;27.08;;
68074;SDS011;54864;52.002;5.468;2023-03-21T02:08:48;37.70;;;27.25;;
68074;SDS011;54864;52.002;5.468;2023-03-21T02:09:49;41.38;;;27.52;;
68074;SDS011;54864;52.002;5.468;2023-03-21T02:10:51;37.90;;;26.17;;
68074;SDS011;54864;52.002;5.468;2023-03-21T02:11:53;41.33;;;26.60;;
68074;SDS011;54864;52.002;5.468;2023-03-21T02:12:54;46.08;;;27.95;;
68074;SDS011;54864;52.002;5.468;2023-03-21T02:14:14;37.28;;;27.25;;
68074;SDS011;54864;52.002;5.468;2023-03-21T02:15:17;40.50;;;26.77;;
68074;SDS011;54864;52.002;5.468;2023-03-21T02:16:20;39.33;;;27.15;;
68074;SDS011;54864;52.002;5.468;2023-03-21T02:17:31;38.90;;;27.07;;
68074;SDS011;54864;52.002;5.468;2023-03-21T02:18:38;38.00;;;27.80;;
68074;SDS011;54864;52.002;5.468;2023-03-21T02:19:58;39.58;;;27.25;;
68074;SDS011;54864;52.002;5.468;2023-03-21T02:21:31;37.60;;;27.58;;
68074;SDS011;54864;52.002;5.468;2023-03-21T02:23:18;39.53;;;27.58;;
68074;SDS011;54864;52.002;5.468;2023-03-21T02:24:41;44.40;;;28.65;;
68074;SDS011;54864;52.002;5.468;2023-03-21T02:26:15;40.60;;;28.25;;
68074;SDS011;54864;52.002;5.468;2023-03-21T02:27:31;41.85;;;28.13;;
68074;SDS011;54864;52.002;5.468;2023-03-21T02:28:37;41.65;;;28.40;;
68074;SDS011;54864;52.002;5.468;2023-03-21T02:31:24;46.07;;;29.10;;
68074;SDS011;54864;52.002;5.468;2023-03-21T02:32:39;44.05;;;28.48;;
68074;SDS011;54864;52.002;5.468;2023-03-21T02:34:02;41.63;;;28.43;;
68074;SDS011;54864;52.002;5.468;2023-03-21T02:35:40;44.65;;;29.42;;
68074;SDS011;54864;52.002;5.468;2023-03-21T02:36:56;39.78;;;28.35;;
68074;SDS011;54864;52.002;5.468;2023-03-21T02:38:03;41.92;;;27.15;;
68074;SDS011;54864;52.002;5.468;2023-03-21T02:39:11;40.28;;;28.48;;
68074;SDS011;54864;52.002;5.468;2023-03-21T02:40:19;38.65;;;28.40;;
68074;SDS011;54864;52.002;5.468;2023-03-21T02:41:31;37.75;;;28.02;;
68074;SDS011;54864;52.002;5.468;2023-03-21T02:42:43;38.67;;;27.77;;
68074;SDS011;54864;52.002;5.468;2023-03-21T02:43:54;36.78;;;27.30;;
68074;SDS011;54864;52.002;5.468;2023-03-21T02:45:03;40.37;;;28.57;;
68074;SDS011;54864;52.002;5.468;2023-03-21T02:46:13;41.20;;;27.98;;
68074;SDS011;54864;52.002;5.468;2023-03-21T02:47:18;43.88;;;27.88;;
68074;SDS011;54864;52.002;5.468;2023-03-21T02:48:28;39.58;;;27.65;;
68074;SDS011;54864;52.002;5.468;2023-03-21T02:49:34;40.25;;;27.92;;
68074;SDS011;54864;52.002;5.468;2023-03-21T02:50:42;39.42;;;28.45;;
68074;SDS011;54864;52.002;5.468;2023-03-21T02:51:47;37.70;;;28.95;;
68074;SDS011;54864;52.002;5.468;2023-03-21T02:52:52;41.97;;;29.63;;
68074;SDS011;54864;52.002;5.468;2023-03-21T02:53:55;41.42;;;29.50;;
68074;SDS011;54864;52.002;5.468;2023-03-21T02:55:02;40.22;;;28.63;;
68074;SDS011;54864;52.002;5.468;2023-03-21T02:56:05;41.63;;;28.92;;
68074;SDS011;54864;52.002;5.468;2023-03-21T02:57:12;41.53;;;29.00;;
68074;SDS011;54864;52.002;5.468;2023-03-21T02:58:16;42.60;;;28.27;;
68074;SDS011;54864;52.002;5.468;2023-03-21T02:59:21;41.80;;;29.60;;
68074;SDS011;54864;52.002;5.468;2023-03-21T03:00:24;42.83;;;30.15;;
68074;SDS011;54864;52.002;5.468;2023-03-21T03:01:28;42.78;;;29.15;;
68074;SDS011;54864;52.002;5.468;2023-03-21T03:02:29;38.53;;;28.65;;
68074;SDS011;54864;52.002;5.468;2023-03-21T03:03:31;41.92;;;29.58;;
68074;SDS011;54864;52.002;5.468;2023-03-21T03:04:34;46.67;;;30.35;;
68074;SDS011;54864;52.002;5.468;2023-03-21T03:05:36;44.92;;;30.77;;
68074;SDS011;54864;52.002;5.468;2023-03-21T03:06:44;42.08;;;30.15;;
68074;SDS011;54864;52.002;5.468;2023-03-21T03:08:11;45.35;;;29.77;;
68074;SDS011;54864;52.002;5.468;2023-03-21T03:09:23;44.22;;;28.65;;
68074;SDS011;54864;52.002;5.468;2023-03-21T03:10:46;43.72;;;29.05;;
68074;SDS011;54864;52.002;5.468;2023-03-21T03:12:00;43.58;;;29.83;;
68074;SDS011;54864;52.002;5.468;2023-03-21T03:13:14;45.58;;;31.42;;
68074;SDS011;54864;52.002;5.468;2023-03-21T03:14:28;47.17;;;29.88;;
68074;SDS011;54864;52.002;5.468;2023-03-21T03:15:49;40.03;;;30.67;;
68074;SDS011;54864;52.002;5.468;2023-03-21T03:17:00;40.47;;;29.52;;
68074;SDS011;54864;52.002;5.468;2023-03-21T03:18:14;46.47;;;30.40;;
68074;SDS011;54864;52.002;5.468;2023-03-21T03:19:24;45.60;;;30.70;;
68074;SDS011;54864;52.002;5.468;2023-03-21T03:20:30;43.45;;;31.77;;
68074;SDS011;54864;52.002;5.468;2023-03-21T03:21:38;39.47;;;29.17;;
68074;SDS011;54864;52.002;5.468;2023-03-21T03:22:44;42.47;;;30.90;;
68074;SDS011;54864;52.002;5.468;2023-03-21T03:23:54;42.63;;;29.33;;
68074;SDS011;54864;52.002;5.468;2023-03-21T03:24:59;43.47;;;30.58;;
68074;SDS011;54864;52.002;5.468;2023-03-21T03:26:05;43.80;;;30.27;;
68074;SDS011;54864;52.002;5.468;2023-03-21T03:27:12;46.25;;;30.40;;
68074;SDS011;54864;52.002;5.468;2023-03-21T03:28:18;39.15;;;29.30;;
68074;SDS011;54864;52.002;5.468;2023-03-21T03:29:25;45.08;;;30.00;;
68074;SDS011;54864;52.002;5.468;2023-03-21T03:30:30;38.83;;;28.63;;
68074;SDS011;54864;52.002;5.468;2023-03-21T03:31:33;40.50;;;27.55;;
68074;SDS011;54864;52.002;5.468;2023-03-21T03:32:39;40.50;;;27.95;;
68074;SDS011;54864;52.002;5.468;2023-03-21T03:33:45;38.38;;;28.88;;
68074;SDS011;54864;52.002;5.468;2023-03-21T03:34:52;40.80;;;28.87;;
68074;SDS011;54864;52.002;5.468;2023-03-21T03:35:55;39.85;;;28.30;;
68074;SDS011;54864;52.002;5.468;2023-03-21T03:37:00;38.60;;;28.77;;
68074;SDS011;54864;52.002;5.468;2023-03-21T03:38:04;40.42;;;29.63;;
68074;SDS011;54864;52.002;5.468;2023-03-21T03:39:12;38.13;;;28.90;;
68074;SDS011;54864;52.002;5.468;2023-03-21T03:40:15;47.20;;;29.50;;
68074;SDS011;54864;52.002;5.468;2023-03-21T03:41:22;44.63;;;28.75;;
68074;SDS011;54864;52.002;5.468;2023-03-21T03:42:26;42.95;;;29.05;;
68074;SDS011;54864;52.002;5.468;2023-03-21T03:43:32;40.53;;;27.90;;
68074;SDS011;54864;52.002;5.468;2023-03-21T03:44:37;38.72;;;27.30;;
68074;SDS011;54864;52.002;5.468;2023-03-21T03:45:42;36.20;;;27.40;;
68074;SDS011;54864;52.002;5.468;2023-03-21T03:46:47;42.08;;;27.65;;
68074;SDS011;54864;52.002;5.468;2023-03-21T03:47:53;41.75;;;26.77;;
68074;SDS011;54864;52.002;5.468;2023-03-21T03:49:03;37.97;;;27.87;;
68074;SDS011;54864;52.002;5.468;2023-03-21T03:50:13;43.25;;;27.98;;
68074;SDS011;54864;52.002;5.468;2023-03-21T03:51:22;41.47;;;27.80;;
68074;SDS011;54864;52.002;5.468;2023-03-21T03:52:28;35.87;;;25.10;;
68074;SDS011;54864;52.002;5.468;2023-03-21T03:53:32;41.47;;;26.40;;
68074;SDS011;54864;52.002;5.468;2023-03-21T03:54:40;39.42;;;26.35;;
68074;SDS011;54864;52.002;5.468;2023-03-21T03:55:43;39.20;;;26.52;;
68074;SDS011;54864;52.002;5.468;2023-03-21T03:56:46;38.95;;;26.33;;
68074;SDS011;54864;52.002;5.468;2023-03-21T03:57:47;41.85;;;26.30;;
68074;SDS011;54864;52.002;5.468;2023-03-21T03:58:49;38.17;;;25.92;;
68074;SDS011;54864;52.002;5.468;2023-03-21T03:59:50;38.85;;;25.33;;
68074;SDS011;54864;52.002;5.468;2023-03-21T04:00:53;43.08;;;26.60;;
68074;SDS011;54864;52.002;5.468;2023-03-21T04:01:54;40.38;;;25.52;;
68074;SDS011;54864;52.002;5.468;2023-03-21T04:02:56;40.78;;;27.30;;
68074;SDS011;54864;52.002;5.468;2023-03-21T04:03:58;36.83;;;25.08;;
68074;SDS011;54864;52.002;5.468;2023-03-21T04:05:00;39.78;;;25.27;;
68074;SDS011;54864;52.002;5.468;2023-03-21T04:06:03;36.75;;;26.10;;
68074;SDS011;54864;52.002;5.468;2023-03-21T04:07:05;34.60;;;24.35;;
68074;SDS011;54864;52.002;5.468;2023-03-21T04:08:13;38.42;;;24.67;;
68074;SDS011;54864;52.002;5.468;2023-03-21T04:09:16;37.35;;;25.00;;
68074;SDS011;54864;52.002;5.468;2023-03-21T04:10:19;35.83;;;22.77;;
68074;SDS011;54864;52.002;5.468;2023-03-21T04:11:22;37.70;;;24.17;;
68074;SDS011;54864;52.002;5.468;2023-03-21T04:12:22;35.65;;;23.60;;
68074;SDS011;54864;52.002;5.468;2023-03-21T04:13:24;39.28;;;23.42;;
68074;SDS011;54864;52.002;5.468;2023-03-21T04:14:25;38.03;;;23.80;;
68074;SDS011;54864;52.002;5.468;2023-03-21T04:15:27;35.38;;;23.85;;
68074;SDS011;54864;52.002;5.468;2023-03-21T04:16:28;37.10;;;25.20;;
68074;SDS011;54864;52.002;5.468;2023-03-21T04:17:31;37.97;;;22.98;;
68074;SDS011;54864;52.002;5.468;2023-03-21T04:18:33;33.00;;;22.55;;
68074;SDS011;54864;52.002;5.468;2023-03-21T04:19:35;37.30;;;22.30;;
68074;SDS011;54864;52.002;5.468;2023-03-21T04:20:35;35.88;;;24.40;;
68074;SDS011;54864;52.002;5.468;2023-03-21T04:21:37;35.40;;;23.00;;
68074;SDS011;54864;52.002;5.468;2023-03-21T04:22:38;36.13;;;22.63;;
68074;SDS011;54864;52.002;5.468;2023-03-21T04:23:40;36.72;;;22.38;;
68074;SDS011;54864;52.002;5.468;2023-03-21T04:24:41;36.40;;;22.67;;
68074;SDS011;54864;52.002;5.468;2023-03-21T04:25:45;36.08;;;23.73;;
68074;SDS011;54864;52.002;5.468;2023-03-21T04:26:45;41.53;;;23.30;;
68074;SDS011;54864;52.002;5.468;2023-03-21T04:27:47;38.45;;;24.05;;
68074;SDS011;54864;52.002;5.468;2023-03-21T04:28:48;39.75;;;22.98;;
68074;SDS011;54864;52.002;5.468;2023-03-21T04:29:50;38.83;;;23.35;;
68074;SDS011;54864;52.002;5.468;2023-03-21T04:30:51;39.87;;;23.07;;
68074;SDS011;54864;52.002;5.468;2023-03-21T04:31:52;33.78;;;21.63;;
68074;SDS011;54864;52.002;5.468;2023-03-21T04:32:53;33.58;;;21.20;;
68074;SDS011;54864;52.002;5.468;2023-03-21T04:33:56;37.25;;;23.00;;
68074;SDS011;54864;52.002;5.468;2023-03-21T04:34:56;36.80;;;22.58;;
68074;SDS011;54864;52.002;5.468;2023-03-21T04:35:58;37.22;;;22.63;;
68074;SDS011;54864;52.002;5.468;2023-03-21T04:36:59;38.13;;;22.23;;
68074;SDS011;54864;52.002;5.468;2023-03-21T04:38:00;34.13;;;20.50;;
68074;SDS011;54864;52.002;5.468;2023-03-21T04:39:01;33.47;;;20.83;;
68074;SDS011;54864;52.002;5.468;2023-03-21T04:40:04;32.20;;;20.73;;
68074;SDS011;54864;52.002;5.468;2023-03-21T04:41:08;37.95;;;21.80;;
68074;SDS011;54864;52.002;5.468;2023-03-21T04:42:12;33.88;;;20.13;;
68074;SDS011;54864;52.002;5.468;2023-03-21T04:43:13;32.83;;;20.23;;
68074;SDS011;54864;52.002;5.468;2023-03-21T04:44:16;35.55;;;19.58;;
68074;SDS011;54864;52.002;5.468;2023-03-21T04:45:17;30.63;;;20.20;;
68074;SDS011;54864;52.002;5.468;2023-03-21T04:46:19;33.10;;;20.60;;
68074;SDS011;54864;52.002;5.468;2023-03-21T04:47:20;32.53;;;19.80;;
68074;SDS011;54864;52.002;5.468;2023-03-21T04:48:22;31.23;;;19.90;;
68074;SDS011;54864;52.002;5.468;2023-03-21T04:49:23;33.35;;;19.42;;
68074;SDS011;54864;52.002;5.468;2023-03-21T04:50:25;32.83;;;19.40;;
68074;SDS011;54864;52.002;5.468;2023-03-21T04:51:26;30.27;;;18.65;;
68074;SDS011;54864;52.002;5.468;2023-03-21T04:52:28;32.97;;;18.92;;
68074;SDS011;54864;52.002;5.468;2023-03-21T04:53:29;32.50;;;19.00;;
68074;SDS011;54864;52.002;5.468;2023-03-21T04:54:31;36.90;;;20.13;;
68074;SDS011;54864;52.002;5.468;2023-03-21T04:55:31;31.10;;;18.47;;
68074;SDS011;54864;52.002;5.468;2023-03-21T04:56:34;28.45;;;19.45;;
68074;SDS011;54864;52.002;5.468;2023-03-21T04:57:35;36.42;;;19.15;;
68074;SDS011;54864;52.002;5.468;2023-03-21T04:58:37;28.98;;;17.45;;
68074;SDS011;54864;52.002;5.468;2023-03-21T04:59:39;28.13;;;17.67;;
68074;SDS011;54864;52.002;5.468;2023-03-21T05:00:41;28.77;;;18.02;;
68074;SDS011;54864;52.002;5.468;2023-03-21T05:01:42;27.95;;;16.75;;
68074;SDS011;54864;52.002;5.468;2023-03-21T05:02:44;29.35;;;17.92;;
68074;SDS011;54864;52.002;5.468;2023-03-21T05:03:45;26.73;;;17.52;;
68074;SDS011;54864;52.002;5.468;2023-03-21T05:04:47;29.30;;;18.17;;
68074;SDS011;54864;52.002;5.468;2023-03-21T05:05:49;29.67;;;17.52;;
68074;SDS011;54864;52.002;5.468;2023-03-21T05:06:50;29.02;;;17.63;;
68074;SDS011;54864;52.002;5.468;2023-03-21T05:07:52;29.70;;;16.98;;
68074;SDS011;54864;52.002;5.468;2023-03-21T05:08:52;29.43;;;16.90;;
68074;SDS011;54864;52.002;5.468;2023-03-21T05:09:55;29.08;;;16.77;;
68074;SDS011;54864;52.002;5.468;2023-03-21T05:10:56;27.10;;;16.45;;
68074;SDS011;54864;52.002;5.468;2023-03-21T05:11:59;28.10;;;17.38;;
68074;SDS011;54864;52.002;5.468;2023-03-21T05:13:01;29.52;;;16.65;;
68074;SDS011;54864;52.002;5.468;2023-03-21T05:14:02;25.98;;;16.08;;
68074;SDS011;54864;52.002;5.468;2023-03-21T05:15:05;28.45;;;16.50;;
68074;SDS011;54864;52.002;5.468;2023-03-21T05:16:07;27.50;;;16.75;;
68074;SDS011;54864;52.002;5.468;2023-03-21T05:17:09;28.23;;;15.85;;
68074;SDS011;54864;52.002;5.468;2023-03-21T05:18:14;31.50;;;16.33;;
68074;SDS011;54864;52.002;5.468;2023-03-21T05:19:25;28.90;;;15.70;;
68074;SDS011;54864;52.002;5.468;2023-03-21T05:20:33;24.67;;;15.30;;
68074;SDS011;54864;52.002;5.468;2023-03-21T05:21:35;29.67;;;15.57;;
68074;SDS011;54864;52.002;5.468;2023-03-21T05:22:40;27.02;;;16.27;;
68074;SDS011;54864;52.002;5.468;2023-03-21T05:23:45;28.35;;;15.82;;
68074;SDS011;54864;52.002;5.468;2023-03-21T05:24:53;27.38;;;15.02;;
68074;SDS011;54864;52.002;5.468;2023-03-21T05:25:56;28.17;;;15.13;;
68074;SDS011;54864;52.002;5.468;2023-03-21T05:26:57;30.80;;;15.10;;
68074;SDS011;54864;52.002;5.468;2023-03-21T05:28:03;24.77;;;14.47;;
68074;SDS011;54864;52.002;5.468;2023-03-21T05:29:04;25.83;;;14.70;;
68074;SDS011;54864;52.002;5.468;2023-03-21T05:30:14;26.33;;;14.50;;
68074;SDS011;54864;52.002;5.468;2023-03-21T05:31:16;27.88;;;14.52;;
68074;SDS011;54864;52.002;5.468;2023-03-21T05:32:19;26.30;;;14.45;;
68074;SDS011;54864;52.002;5.468;2023-03-21T05:33:20;24.27;;;15.32;;
68074;SDS011;54864;52.002;5.468;2023-03-21T05:34:22;23.25;;;14.07;;
68074;SDS011;54864;52.002;5.468;2023-03-21T05:35:23;28.25;;;14.77;;
68074;SDS011;54864;52.002;5.468;2023-03-21T05:36:24;22.90;;;13.52;;
68074;SDS011;54864;52.002;5.468;2023-03-21T05:37:25;23.52;;;13.50;;
68074;SDS011;54864;52.002;5.468;2023-03-21T05:38:27;27.05;;;14.50;;
68074;SDS011;54864;52.002;5.468;2023-03-21T05:39:28;28.00;;;13.60;;
68074;SDS011;54864;52.002;5.468;2023-03-21T05:40:30;24.15;;;13.23;;
68074;SDS011;54864;52.002;5.468;2023-03-21T05:41:32;27.80;;;14.60;;
68074;SDS011;54864;52.002;5.468;2023-03-21T05:42:33;30.17;;;13.43;;
68074;SDS011;54864;52.002;5.468;2023-03-21T05:43:37;23.35;;;13.75;;
68074;SDS011;54864;52.002;5.468;2023-03-21T05:44:37;26.33;;;14.00;;
68074;SDS011;54864;52.002;5.468;2023-03-21T05:45:40;24.52;;;14.15;;
68074;SDS011;54864;52.002;5.468;2023-03-21T05:46:42;25.98;;;13.85;;
68074;SDS011;54864;52.002;5.468;2023-03-21T05:47:43;24.83;;;14.00;;
68074;SDS011;54864;52.002;5.468;2023-03-21T05:48:44;25.55;;;13.27;;
68074;SDS011;54864;52.002;5.468;2023-03-21T05:49:45;23.75;;;14.10;;
68074;SDS011;54864;52.002;5.468;2023-03-21T05:50:47;24.25;;;13.50;;
68074;SDS011;54864;52.002;5.468;2023-03-21T05:51:48;26.77;;;13.20;;
68074;SDS011;54864;52.002;5.468;2023-03-21T05:52:51;27.80;;;13.88;;
68074;SDS011;54864;52.002;5.468;2023-03-21T05:53:51;28.25;;;13.27;;
68074;SDS011;54864;52.002;5.468;2023-03-21T05:54:53;26.27;;;14.40;;
68074;SDS011;54864;52.002;5.468;2023-03-21T05:55:55;27.25;;;14.13;;
68074;SDS011;54864;52.002;5.468;2023-03-21T05:56:57;23.88;;;13.90;;
68074;SDS011;54864;52.002;5.468;2023-03-21T05:57:58;29.35;;;14.73;;
68074;SDS011;54864;52.002;5.468;2023-03-21T05:59:00;24.48;;;13.32;;
68074;SDS011;54864;52.002;5.468;2023-03-21T06:00:02;24.20;;;13.52;;
68074;SDS011;54864;52.002;5.468;2023-03-21T06:01:04;25.98;;;13.57;;
68074;SDS011;54864;52.002;5.468;2023-03-21T06:02:07;24.30;;;13.60;;
68074;SDS011;54864;52.002;5.468;2023-03-21T06:03:07;24.10;;;14.10;;
68074;SDS011;54864;52.002;5.468;2023-03-21T06:04:10;30.92;;;14.82;;
68074;SDS011;54864;52.002;5.468;2023-03-21T06:05:11;25.83;;;14.50;;
68074;SDS011;54864;52.002;5.468;2023-03-21T06:06:12;27.63;;;14.75;;
68074;SDS011;54864;52.002;5.468;2023-03-21T06:07:13;22.52;;;13.48;;
68074;SDS011;54864;52.002;5.468;2023-03-21T06:08:15;28.60;;;14.90;;
68074;SDS011;54864;52.002;5.468;2023-03-21T06:09:16;23.50;;;13.45;;
68074;SDS011;54864;52.002;5.468;2023-03-21T06:10:18;25.65;;;14.88;;
68074;SDS011;54864;52.002;5.468;2023-03-21T06:11:22;28.02;;;15.57;;
68074;SDS011;54864;52.002;5.468;2023-03-21T06:12:26;29.08;;;14.32;;
68074;SDS011;54864;52.002;5.468;2023-03-21T06:13:27;27.88;;;14.82;;
68074;SDS011;54864;52.002;5.468;2023-03-21T06:14:31;29.27;;;14.13;;
68074;SDS011;54864;52.002;5.468;2023-03-21T06:15:32;26.60;;;14.57;;
68074;SDS011;54864;52.002;5.468;2023-03-21T06:16:34;22.92;;;14.07;;
68074;SDS011;54864;52.002;5.468;2023-03-21T06:17:35;25.52;;;13.98;;
68074;SDS011;54864;52.002;5.468;2023-03-21T06:18:37;27.70;;;15.00;;